Time;durP1;ratioP1;P1;durP2;ratioP2;P2;SDS_P1;SDS_P2;PMS_P1;PMS_P2;Temp;Humidity;BMP_temperature;BMP_pressure;BME280_temperature;BME280_humidity;BME280_pressure;Samples;Min_cycle;Max_cycle;Signal;HPM_P1;HPM_P2
2022/01/13 00:01:26;;;;;;;;;;;;;;;-1.99;89.41;99992.95;1622850;87;25222;-86
2022/01/13 00:03:48;;;;;;;;;;;;;;;-1.98;89.51;99988.26;1622206;88;20252;-82
2022/01/13 00:06:14;;;;;;;;;;;;;;;-2.00;89.57;99986.09;1622509;88;25407;-87
2022/01/13 00:08:40;;;;;;;;;;;;;;;-1.98;89.67;99988.68;1622716;88;22419;-83
2022/01/13 00:11:06;;;;;;;;;;;;;;;-2.00;89.71;99983.53;1622758;88;20941;-82
2022/01/13 00:13:45;;;;;;;;;;;;;;;-2.03;89.76;99991.23;1622874;88;24636;-83
2022/01/13 00:18:50;;;;;;;;;;;;;;;-2.03;89.91;99986.52;1621911;88;24813;-81
2022/01/13 00:21:30;;;;;;;;;;;;;;;-2.02;89.99;99988.23;1623033;87;22763;-85
2022/01/13 00:23:50;;;;;;;;;;;;;;;-2.01;90.09;99980.95;1623060;88;26688;-86
2022/01/13 00:26:21;;;;;;;;;;;;;;;-1.98;90.22;99980.56;1622891;88;24450;-86
2022/01/13 00:28:48;;;;;;;;;;;;;;;-1.96;90.34;99975.00;1622148;88;20596;-86
2022/01/13 00:31:16;;;;;;;;;;;;;;;-1.96;90.43;99969.00;1622905;86;25423;-86
2022/01/13 00:33:45;;;;;;;;;;;;;;;-1.94;90.53;99973.73;1622651;88;22954;-86
2022/01/13 00:36:11;;;;;;;;;;;;;;;-1.96;90.62;99964.73;1622950;88;27004;-86
2022/01/13 00:38:37;;;;;;;;;;;;;;;-1.94;90.72;99964.33;1622778;88;23911;-86
2022/01/13 00:41:03;;;;;;;;;;;;;;;-1.92;90.83;99966.91;1622776;88;20238;-86
2022/01/13 00:43:31;;;;;;;;;;;;;;;-1.89;90.97;99972.90;1622649;88;25372;-86
2022/01/13 00:45:57;;;;;;;;;;;;;;;-1.85;91.11;99975.05;1622882;88;22003;-86
2022/01/13 00:48:23;;;;;;;;;;;;;;;-1.83;91.25;99973.36;1623002;87;26302;-86
2022/01/13 00:50:49;;;;;;;;;;;;;;;-1.76;91.45;99977.25;1622569;86;20895;-86
2022/01/13 00:53:16;;;;;;;;;;;;;;;-1.74;91.59;99984.51;1621188;88;20479;-86
2022/01/13 00:55:48;;;;;;;;;;;;;;;-1.75;91.69;99987.95;1623117;88;25090;-81
2022/01/13 00:58:13;;;;;;;;;;;;;;;-1.72;91.82;99983.23;1622615;87;22154;-81
2022/01/13 01:00:39;;;;;;;;;;;;;;;-1.72;91.95;99984.09;1622883;88;26139;-81
2022/01/13 01:03:07;;;;;;;;;;;;;;;-1.71;92.05;99989.67;1623057;87;24525;-86
2022/01/13 01:05:34;;;;;;;;;;;;;;;-1.71;92.13;99996.51;1622873;88;20306;-86
2022/01/13 01:08:01;;;;;;;;;;;;;;;-1.71;92.22;99993.94;1622890;87;24824;-86
2022/01/13 01:10:27;;;;;;;;;;;;;;;-1.68;92.36;99996.51;1622813;87;21983;-86
2022/01/13 01:12:53;;;;;;;;;;;;;;;-1.65;92.50;100004.66;1622690;88;20927;-86
2022/01/13 01:15:19;;;;;;;;;;;;;;;-1.62;92.65;100010.66;1622759;88;24410;-86
2022/01/13 01:17:50;;;;;;;;;;;;;;;-1.60;92.78;100012.81;1622645;88;20321;-82
2022/01/13 01:20:13;;;;;;;;;;;;;;;-1.59;92.88;100018.38;1622708;87;24792;-81
2022/01/13 01:23:26;;;;;;;;;;;;;;;-1.59;92.96;100014.95;1622669;87;22095;-81
2022/01/13 01:27:45;;;;;;;;;;;;;;;-1.56;93.17;100018.80;1621422;88;24579;-85
2022/01/13 01:30:22;;;;;;;;;;;;;;;-1.57;93.25;100024.36;1622522;88;20342;-86
2022/01/13 01:32:39;;;;;;;;;;;;;;;-1.56;93.35;100025.22;1624841;86;24801;-85
2022/01/13 01:35:12;;;;;;;;;;;;;;;-1.52;93.49;100027.80;1621447;88;22167;-86
2022/01/13 01:37:34;;;;;;;;;;;;;;;-1.49;93.61;100035.53;1621638;88;25974;-86
2022/01/13 01:40:00;;;;;;;;;;;;;;;-1.47;93.74;100033.81;1622813;87;24552;-86
2022/01/13 01:42:27;;;;;;;;;;;;;;;-1.47;93.84;100044.08;1622670;88;20177;-85
2022/01/13 01:44:55;;;;;;;;;;;;;;;-1.43;93.96;100053.95;1622618;88;25417;-83
2022/01/13 01:47:22;;;;;;;;;;;;;;;-1.40;94.06;100066.79;1620938;88;22094;-83
2022/01/13 01:49:52;;;;;;;;;;;;;;;-1.42;94.15;100054.39;1622651;87;25751;-83
2022/01/13 01:52:18;;;;;;;;;;;;;;;-1.41;94.26;100061.22;1622375;87;25145;-86
2022/01/13 01:54:46;;;;;;;;;;;;;;;-1.42;94.33;100055.22;1622610;88;21954;-86
2022/01/13 01:57:13;;;;;;;;;;;;;;;-1.43;94.47;100048.40;1622531;88;25655;-86
2022/01/13 01:59:42;;;;;;;;;;;;;;;-1.43;94.58;100026.58;1622731;87;22081;-81
2022/01/13 02:02:10;;;;;;;;;;;;;;;-1.44;94.69;100015.01;1622873;87;25983;-86
2022/01/13 02:04:36;;;;;;;;;;;;;;;-1.44;94.81;100016.29;1630925;87;24330;-86
2022/01/13 02:07:04;;;;;;;;;;;;;;;-1.46;94.97;100020.13;1622341;88;20298;-82
2022/01/13 02:09:34;;;;;;;;;;;;;;;-1.44;95.13;100026.56;1622514;88;24871;-81
2022/01/13 02:12:05;;;;;;;;;;;;;;;-1.40;95.32;100030.42;1622577;88;22709;-82
2022/01/13 02:17:04;;;;;;;;;;;;;;;-1.38;95.68;100028.73;1623065;87;24544;-85
2022/01/13 02:19:28;;;;;;;;;;;;;;;-1.45;95.87;99995.31;1622581;87;20338;-81
2022/01/13 02:21:54;;;;;;;;;;;;;;;-1.37;96.03;99984.23;1622763;88;24859;-81
2022/01/13 02:24:20;;;;;;;;;;;;;;;-1.38;96.19;99986.36;1623007;88;21969;-81
2022/01/13 02:26:46;;;;;;;;;;;;;;;-1.41;96.34;99997.89;1623037;88;21211;-81
2022/01/13 02:29:12;;;;;;;;;;;;;;;-1.38;96.51;99996.64;1622440;88;20852;-81
2022/01/13 02:31:38;;;;;;;;;;;;;;;-1.37;96.69;99995.79;1622714;88;20253;-81
2022/01/13 02:34:04;;;;;;;;;;;;;;;-1.37;96.89;100000.06;1622572;88;24835;-85
2022/01/13 02:36:32;;;;;;;;;;;;;;;-1.36;97.06;100012.02;1622795;88;21985;-85
2022/01/13 02:39:00;;;;;;;;;;;;;;;-1.39;97.20;100013.31;1622979;87;26756;-86
2022/01/13 02:41:27;;;;;;;;;;;;;;;-1.35;97.43;100004.33;1622527;88;24437;-86
2022/01/13 02:43:55;;;;;;;;;;;;;;;-1.30;97.67;100018.47;1623239;87;20196;-86
2022/01/13 02:46:30;;;;;;;;;;;;;;;-1.29;97.90;100018.48;1622454;88;24951;-86
2022/01/13 02:48:50;;;;;;;;;;;;;;;-1.25;98.10;100033.45;1622875;87;22007;-85
2022/01/13 02:51:16;;;;;;;;;;;;;;;-1.21;98.35;100033.06;1622719;87;21167;-86
2022/01/13 02:53:42;;;;;;;;;;;;;;;-1.21;98.53;100022.37;1634458;86;20915;-81
2022/01/13 02:56:08;;;;;;;;;;;;;;;-1.18;98.70;100011.22;1634442;86;20824;-86
2022/01/13 02:58:34;;;;;;;;;;;;;;;-1.19;98.87;99983.40;1634422;87;20288;-81
2022/01/13 03:01:01;;;;;;;;;;;;;;;-1.25;99.00;99971.83;1634119;86;21975;-81
2022/01/13 03:03:29;;;;;;;;;;;;;;;-1.30;99.07;99966.69;1634508;86;26065;-81
2022/01/13 03:05:55;;;;;;;;;;;;;;;-1.32;99.21;99966.27;1633887;86;24416;-81
2022/01/13 03:08:21;;;;;;;;;;;;;;;-1.35;99.32;99967.52;1634752;87;20312;-82
2022/01/13 03:10:47;;;;;;;;;;;;;;;-1.36;99.46;99967.09;1634522;86;20264;-86
2022/01/13 03:13:13;;;;;;;;;;;;;;;-1.35;99.65;99982.51;1634383;87;20217;-82
2022/01/13 03:15:39;;;;;;;;;;;;;;;-1.32;99.87;99970.98;1634172;87;21054;-83
2022/01/13 03:18:05;;;;;;;;;;;;;;;-1.32;100.00;99983.81;1634082;86;20248;-81
2022/01/13 03:20:31;;;;;;;;;;;;;;;-1.31;100.00;99988.53;1634321;87;20254;-86
2022/01/13 03:22:57;;;;;;;;;;;;;;;-1.28;100.00;99997.09;1634133;87;20590;-83
2022/01/13 03:25:24;;;;;;;;;;;;;;;-1.24;100.00;99999.65;1634179;87;20233;-83
2022/01/13 03:27:58;;;;;;;;;;;;;;;-1.21;100.00;99998.39;1632688;86;26042;-86
2022/01/13 03:30:21;;;;;;;;;;;;;;;-1.19;100.00;99993.67;1633859;87;25196;-82
2022/01/13 03:32:47;;;;;;;;;;;;;;;-1.18;100.00;99996.67;1634383;87;20216;-81
2022/01/13 03:35:13;;;;;;;;;;;;;;;-1.14;100.00;99997.53;1632377;86;24770;-86
2022/01/13 03:37:45;;;;;;;;;;;;;;;-1.15;100.00;100003.13;1632655;87;22712;-86
2022/01/13 03:40:11;;;;;;;;;;;;;;;-1.12;100.00;99991.98;1634221;86;26648;-86
2022/01/13 03:42:37;;;;;;;;;;;;;;;-1.11;100.00;99988.14;1634152;87;24522;-86
2022/01/13 03:45:07;;;;;;;;;;;;;;;-1.05;100.00;99989.86;1634203;88;20284;-86
2022/01/13 03:47:33;;;;;;;;;;;;;;;-1.01;100.00;99987.30;1634000;86;24848;-81
2022/01/13 03:49:59;;;;;;;;;;;;;;;-0.98;100.00;99986.00;1634108;87;22017;-86
2022/01/13 03:52:27;;;;;;;;;;;;;;;-0.99;100.00;99980.88;1633967;87;20947;-86
2022/01/13 03:55:11;;;;;;;;;;;;;;;-0.97;100.00;99974.88;1633991;88;25329;-86
2022/01/13 03:57:54;;;;;;;;;;;;;;;-0.95;100.00;99968.45;1634072;86;20515;-86
2022/01/13 04:00:42;;;;;;;;;;;;;;;-0.93;100.00;99969.33;1634206;86;24814;-86
2022/01/13 04:03:06;;;;;;;;;;;;;;;-0.90;100.00;99955.19;1632796;88;21985;-86
2022/01/13 04:05:34;;;;;;;;;;;;;;;-0.91;100.00;99949.19;1634196;88;20974;-86
2022/01/13 04:08:00;;;;;;;;;;;;;;;-0.92;100.00;99951.75;1634899;87;24561;-86
2022/01/13 04:10:31;;;;;;;;;;;;;;;-0.94;100.00;99959.91;1634142;88;20253;-86
2022/01/13 04:12:57;;;;;;;;;;;;;;;-0.92;100.00;99962.87;1634443;86;24929;-86
2022/01/13 04:15:25;;;;;;;;;;;;;;;-0.93;100.00;99962.91;1614247;87;20401;-86
2022/01/13 04:17:51;;;;;;;;;;;;;;;-0.93;100.00;99958.59;1634135;86;26078;-83
2022/01/13 04:20:18;;;;;;;;;;;;;;;-0.92;100.00;99956.88;1634201;88;23993;-83
2022/01/13 04:22:44;;;;;;;;;;;;;;;-0.91;100.00;99965.89;1632319;88;20528;-82
2022/01/13 04:25:10;;;;;;;;;;;;;;;-0.87;100.00;99968.02;1634387;87;24881;-82
2022/01/13 04:27:41;;;;;;;;;;;;;;;-0.86;100.00;99967.17;1634213;87;21989;-81
2022/01/13 04:32:47;;;;;;;;;;;;;;;-0.78;100.00;99972.33;1636562;86;25176;-83
2022/01/13 04:35:11;;;;;;;;;;;;;;;-0.77;100.00;99964.63;1633273;87;20261;-86
2022/01/13 04:37:37;;;;;;;;;;;;;;;-0.77;100.00;99967.20;1634068;87;24790;-86
2022/01/13 04:40:04;;;;;;;;;;;;;;;-0.74;100.00;99968.89;1634378;86;21987;-82
2022/01/13 04:42:35;;;;;;;;;;;;;;;-0.73;100.00;99975.75;1634285;88;25991;-86
2022/01/13 04:44:58;;;;;;;;;;;;;;;-0.74;100.00;99963.75;1632849;87;24669;-86
2022/01/13 04:47:24;;;;;;;;;;;;;;;-0.72;100.00;99960.77;1634657;87;20227;-86
2022/01/13 04:49:50;;;;;;;;;;;;;;;-0.74;100.00;99968.89;1634375;86;20226;-86
2022/01/13 04:52:16;;;;;;;;;;;;;;;-0.77;100.00;99960.77;1632754;87;20234;-86
2022/01/13 04:54:44;;;;;;;;;;;;;;;-0.75;100.00;99964.17;1623220;88;21627;-82
2022/01/13 04:57:17;;;;;;;;;;;;;;;-0.73;100.00;99969.33;1621496;87;24493;-82
2022/01/13 04:59:43;;;;;;;;;;;;;;;-0.69;100.00;99972.31;1630241;86;20246;-81
2022/01/13 05:02:09;;;;;;;;;;;;;;;-0.62;100.00;99977.89;1622861;87;24789;-86
2022/01/13 05:04:37;;;;;;;;;;;;;;;-0.58;100.00;99971.45;1621231;88;20321;-86
2022/01/13 05:07:03;;;;;;;;;;;;;;;-0.49;100.00;99970.16;1622505;88;25920;-86
2022/01/13 05:09:29;;;;;;;;;;;;;;;-0.41;100.00;99966.30;1622747;88;20250;-86
2022/01/13 05:11:55;;;;;;;;;;;;;;;-0.37;100.00;99964.57;1622796;88;20246;-86
2022/01/13 05:14:21;;;;;;;;;;;;;;;-0.34;100.00;99966.73;1623060;88;20229;-82
2022/01/13 05:17:00;;;;;;;;;;;;;;;-0.30;100.00;99964.57;1621075;87;20249;-86
2022/01/13 05:19:37;;;;;;;;;;;;;;;-0.26;100.00;99971.41;1621012;87;26775;-83
2022/01/13 05:24:26;;;;;;;;;;;;;;;-0.16;100.00;99957.67;1621009;88;20473;-86
2022/01/13 05:26:52;;;;;;;;;;;;;;;-0.16;100.00;99951.66;1622943;88;24994;-86
2022/01/13 05:29:20;;;;;;;;;;;;;;;-0.18;100.00;99951.69;1623054;88;22724;-86
2022/01/13 05:31:47;;;;;;;;;;;;;;;-0.16;100.00;99955.52;1625041;86;26050;-81
2022/01/13 05:34:13;;;;;;;;;;;;;;;-0.20;100.00;99961.55;1622558;88;24596;-82
2022/01/13 05:36:40;;;;;;;;;;;;;;;-0.25;100.00;99968.41;1622280;88;20540;-82
2022/01/13 05:39:06;;;;;;;;;;;;;;;-0.27;100.00;99974.02;1622797;88;20327;-86
2022/01/13 05:41:33;;;;;;;;;;;;;;;-0.31;100.00;99972.28;1623063;88;20322;-86
2022/01/13 05:44:00;;;;;;;;;;;;;;;-0.35;100.00;99960.30;1604248;88;26562;-87
2022/01/13 05:46:26;;;;;;;;;;;;;;;-0.37;100.00;99963.28;1604337;88;24873;-86
2022/01/13 05:48:54;;;;;;;;;;;;;;;-0.36;100.00;99957.29;1623036;87;20321;-86
2022/01/13 05:51:21;;;;;;;;;;;;;;;-0.36;100.00;99959.44;1622563;87;25015;-86
2022/01/13 05:53:46;;;;;;;;;;;;;;;-0.36;100.00;99959.86;1630036;85;22744;-86
2022/01/13 05:56:13;;;;;;;;;;;;;;;-0.37;100.00;99964.14;1634636;87;20949;-82
2022/01/13 05:58:39;;;;;;;;;;;;;;;-0.40;100.00;99956.45;1634143;87;24464;-82
2022/01/13 06:01:05;;;;;;;;;;;;;;;-0.42;100.00;99959.44;1634128;86;20247;-82
2022/01/13 06:03:31;;;;;;;;;;;;;;;-0.42;100.00;99963.30;1634490;87;20254;-83
2022/01/13 06:05:57;;;;;;;;;;;;;;;-0.46;100.00;99962.45;1634298;86;20313;-83
2022/01/13 06:08:24;;;;;;;;;;;;;;;-0.48;100.00;99953.88;1634263;87;26740;-83
2022/01/13 06:10:50;;;;;;;;;;;;;;;-0.49;100.00;99963.73;1634312;86;25307;-83
2022/01/13 06:13:16;;;;;;;;;;;;;;;-0.48;100.00;99968.02;1632183;87;20191;-83
2022/01/13 06:15:42;;;;;;;;;;;;;;;-0.47;100.00;99972.30;1634285;87;20309;-82
2022/01/13 06:18:12;;;;;;;;;;;;;;;-0.46;100.00;99974.03;1634475;86;20323;-86
2022/01/13 06:20:39;;;;;;;;;;;;;;;-0.45;100.00;99981.31;1634101;87;26090;-86
2022/01/13 06:23:05;;;;;;;;;;;;;;;-0.41;100.00;99975.30;1634218;86;24492;-86
2022/01/13 06:25:31;;;;;;;;;;;;;;;-0.39;100.00;99966.31;1634316;87;20509;-86
2022/01/13 06:27:57;;;;;;;;;;;;;;;-0.39;100.00;99953.02;1613735;87;24879;-83
2022/01/13 06:30:23;;;;;;;;;;;;;;;-0.40;100.00;99936.30;1634520;87;20257;-81
2022/01/13 06:32:49;;;;;;;;;;;;;;;-0.42;100.00;99925.58;1634586;86;20999;-86
2022/01/13 06:35:15;;;;;;;;;;;;;;;-0.42;100.00;99932.02;1633791;88;20315;-86
2022/01/13 06:37:45;;;;;;;;;;;;;;;-0.44;100.00;99944.46;1634576;86;20195;-83
2022/01/13 06:40:10;;;;;;;;;;;;;;;-0.45;100.00;99944.89;1634121;86;24785;-81
2022/01/13 06:42:37;;;;;;;;;;;;;;;-0.45;100.00;99950.03;1614152;88;22050;-81
2022/01/13 06:45:04;;;;;;;;;;;;;;;-0.44;100.00;99950.43;1634494;86;26203;-82
2022/01/13 06:47:30;;;;;;;;;;;;;;;-0.42;100.00;99947.44;1633787;88;24491;-82
2022/01/13 06:49:56;;;;;;;;;;;;;;;-0.40;100.00;99953.88;1638459;85;20293;-82
2022/01/13 06:52:22;;;;;;;;;;;;;;;-0.37;100.00;99960.71;1634167;87;25486;-81
2022/01/13 06:54:49;;;;;;;;;;;;;;;-0.37;100.00;99969.72;1634041;87;20232;-82
2022/01/13 06:57:15;;;;;;;;;;;;;;;-0.39;100.00;99968.88;1634366;87;26020;-81
2022/01/13 06:59:42;;;;;;;;;;;;;;;-0.39;100.00;99961.16;1632988;86;25020;-81
2022/01/13 07:02:08;;;;;;;;;;;;;;;-0.35;100.00;99962.44;1634277;86;20149;-81
2022/01/13 07:04:34;;;;;;;;;;;;;;;-0.31;100.00;99955.56;1634083;87;24732;-81
2022/01/13 07:07:00;;;;;;;;;;;;;;;-0.29;100.00;99956.00;1634397;86;21922;-82
2022/01/13 07:09:27;;;;;;;;;;;;;;;-0.31;100.00;99961.99;1634274;87;26007;-81
2022/01/13 07:11:53;;;;;;;;;;;;;;;-0.30;100.00;99957.28;1632500;87;24426;-82
2022/01/13 07:14:19;;;;;;;;;;;;;;;-0.33;100.00;99953.02;1634534;87;20805;-82
2022/01/13 07:16:45;;;;;;;;;;;;;;;-0.36;100.00;99951.72;1634368;86;24758;-82
2022/01/13 07:19:12;;;;;;;;;;;;;;;-0.38;100.00;99945.71;1633169;87;22039;-81
2022/01/13 07:21:40;;;;;;;;;;;;;;;-0.39;100.00;99958.17;1634083;87;26728;-81
2022/01/13 07:24:07;;;;;;;;;;;;;;;-0.45;100.00;99964.17;1623227;86;25436;-82
2022/01/13 07:26:33;;;;;;;;;;;;;;;-0.48;100.00;99974.44;1641035;87;20207;-82
2022/01/13 07:28:58;;;;;;;;;;;;;;;-0.50;100.00;99986.47;1641292;86;20317;-82
2022/01/13 07:31:25;;;;;;;;;;;;;;;-0.50;100.00;99993.32;1641939;85;22059;-82
2022/01/13 07:33:51;;;;;;;;;;;;;;;-0.49;100.00;99997.58;1640898;86;21062;-82
2022/01/13 07:36:17;;;;;;;;;;;;;;;-0.46;100.00;99986.02;1641249;87;24477;-82
2022/01/13 07:38:44;;;;;;;;;;;;;;;-0.40;100.00;99972.30;1640877;87;20178;-82
2022/01/13 07:41:10;;;;;;;;;;;;;;;-0.40;100.00;99946.16;1641808;86;24764;-82
2022/01/13 07:43:42;;;;;;;;;;;;;;;-0.36;100.00;99948.28;1615718;87;20172;-82
2022/01/13 07:46:07;;;;;;;;;;;;;;;-0.36;100.00;99948.28;1641889;86;26072;-81
2022/01/13 07:48:33;;;;;;;;;;;;;;;-0.39;100.00;99957.31;1640703;87;25161;-81
2022/01/13 07:51:06;;;;;;;;;;;;;;;-0.39;100.00;99952.16;1641111;87;20598;-81
2022/01/13 07:53:32;;;;;;;;;;;;;;;-0.37;100.00;99950.42;1637234;86;24823;-82
2022/01/13 07:55:58;;;;;;;;;;;;;;;-0.36;100.00;99959.44;1623433;88;22103;-82
2022/01/13 07:58:24;;;;;;;;;;;;;;;-0.39;100.00;99946.59;1619296;87;26074;-82
2022/01/13 08:00:50;;;;;;;;;;;;;;;-0.38;100.00;99952.14;1595371;88;20330;-81
2022/01/13 08:03:16;;;;;;;;;;;;;;;-0.31;100.00;99952.99;1599212;88;20300;-82
2022/01/13 08:05:42;;;;;;;;;;;;;;;-0.25;100.00;99960.70;1600914;88;20826;-81
2022/01/13 08:08:09;;;;;;;;;;;;;;;-0.22;100.00;99956.85;1605310;88;20235;-82
2022/01/13 08:10:36;;;;;;;;;;;;;;;-0.18;100.00;99937.97;1614957;88;26112;-82
2022/01/13 08:13:02;;;;;;;;;;;;;;;-0.14;100.00;99925.52;1617478;88;25369;-82
2022/01/13 08:15:29;;;;;;;;;;;;;;;-0.15;100.00;99917.36;1603022;87;20190;-82
2022/01/13 08:20:39;;;;;;;;;;;;;;;-0.15;100.00;99908.36;1598667;88;22763;-82
2022/01/13 08:23:06;;;;;;;;;;;;;;;-0.12;100.00;99901.94;1621766;87;26660;-82
2022/01/13 08:25:32;;;;;;;;;;;;;;;-0.09;100.00;99891.62;1613967;87;24716;-82
2022/01/13 08:27:58;;;;;;;;;;;;;;;-0.03;100.00;99883.45;1614012;88;20217;-82
2022/01/13 08:30:25;;;;;;;;;;;;;;;0.03;100.00;99882.57;1619207;86;25739;-82
2022/01/13 08:32:51;;;;;;;;;;;;;;;0.05;100.00;99888.58;1626875;86;21982;-82
2022/01/13 08:35:17;;;;;;;;;;;;;;;0.11;100.00;99879.52;1600379;87;25979;-82
2022/01/13 08:37:43;;;;;;;;;;;;;;;0.15;100.00;99875.23;1602640;87;20284;-82
2022/01/13 08:40:11;;;;;;;;;;;;;;;0.18;100.00;99873.48;1599687;88;20311;-82
2022/01/13 08:42:37;;;;;;;;;;;;;;;0.23;100.00;99866.59;1590617;88;24880;-82
2022/01/13 08:45:04;;;;;;;;;;;;;;;0.27;100.00;99882.89;1586935;87;22007;-82
2022/01/13 08:47:30;;;;;;;;;;;;;;;0.29;100.00;99895.31;1600199;88;25997;-82
2022/01/13 08:49:57;;;;;;;;;;;;;;;0.29;100.00;99886.30;1597790;89;24278;-82
2022/01/13 08:52:23;;;;;;;;;;;;;;;0.36;100.00;99890.12;1604667;88;20237;-82
2022/01/13 08:54:50;;;;;;;;;;;;;;;0.43;100.00;99899.11;1595201;88;24922;-82
2022/01/13 08:57:16;;;;;;;;;;;;;;;0.51;100.00;99901.19;1602788;88;22273;-82
2022/01/13 08:59:42;;;;;;;;;;;;;;;0.56;100.00;99895.58;1611486;87;21802;-82
2022/01/13 09:02:09;;;;;;;;;;;;;;;0.62;100.00;99892.54;1603747;87;20865;-82
2022/01/13 09:04:35;;;;;;;;;;;;;;;0.68;100.00;99893.79;1599310;87;20519;-82
2022/01/13 09:07:01;;;;;;;;;;;;;;;0.74;100.00;99892.46;1601176;88;20236;-82
2022/01/13 09:09:27;;;;;;;;;;;;;;;0.79;100.00;99889.84;1598814;87;22017;-82
2022/01/13 09:11:53;;;;;;;;;;;;;;;0.81;100.00;99894.14;1604360;87;21024;-82
2022/01/13 09:14:25;;;;;;;;;;;;;;;0.84;100.00;99903.55;1603563;88;20835;-82
2022/01/13 09:16:50;;;;;;;;;;;;;;;0.87;100.00;99901.40;1595902;87;20253;-82
2022/01/13 09:19:17;;;;;;;;;;;;;;;0.91;100.00;99903.94;1595983;88;24893;-82
2022/01/13 09:21:44;;;;;;;;;;;;;;;0.98;100.00;99913.77;1602248;87;22019;-82
2022/01/13 09:24:15;;;;;;;;;;;;;;;1.04;100.00;99907.25;1589307;88;26087;-83
2022/01/13 09:26:42;;;;;;;;;;;;;;;1.10;100.00;99914.51;1590006;89;24527;-82
2022/01/13 09:29:09;;;;;;;;;;;;;;;1.16;100.00;99910.59;1595397;88;20311;-83
2022/01/13 09:31:35;;;;;;;;;;;;;;;1.18;100.00;99911.45;1603801;87;24758;-83
2022/01/13 09:34:02;;;;;;;;;;;;;;;1.21;100.00;99904.11;1607368;87;22012;-83
2022/01/13 09:36:29;;;;;;;;;;;;;;;1.22;100.00;99910.55;1602276;88;26094;-83
2022/01/13 09:38:55;;;;;;;;;;;;;;;1.25;100.00;99925.15;1595677;88;24445;-83
2022/01/13 09:41:23;;;;;;;;;;;;;;;1.30;100.00;99911.78;1606201;88;20162;-83
2022/01/13 09:43:49;;;;;;;;;;;;;;;1.33;100.00;99883.80;1592780;88;24842;-83
2022/01/13 09:46:15;;;;;;;;;;;;;;;1.37;100.00;99870.00;1600012;88;20240;-83
2022/01/13 09:48:43;;;;;;;;;;;;;;;1.39;100.00;99859.25;1580839;88;25922;-83
2022/01/13 09:51:09;;;;;;;;;;;;;;;1.44;100.00;99858.77;1599338;88;25325;-83
2022/01/13 09:53:36;;;;;;;;;;;;;;;1.51;100.00;99873.31;1613535;87;20518;-84
2022/01/13 09:56:03;;;;;;;;;;;;;;;1.59;100.00;99880.52;1617818;87;24943;-83
2022/01/13 09:58:29;;;;;;;;;;;;;;;1.66;100.00;99865.41;1620934;87;21969;-83
2022/01/13 10:00:55;;;;;;;;;;;;;;;1.65;100.00;99865.84;1616851;87;26704;-83
2022/01/13 10:03:25;;;;;;;;;;;;;;;1.68;100.00;99861.09;1621784;87;25184;-83
2022/01/13 10:05:52;;;;;;;;;;;;;;;1.72;100.00;99853.73;1616437;87;20330;-83
2022/01/13 10:08:23;;;;;;;;;;;;;;;1.77;100.00;99858.39;1615308;87;24893;-83
2022/01/13 10:10:49;;;;;;;;;;;;;;;1.80;100.00;99862.22;1602556;87;22654;-83
2022/01/13 10:13:24;;;;;;;;;;;;;;;1.84;100.00;99867.78;1620518;87;25989;-83
2022/01/13 10:18:41;;;;;;;;;;;;;;;1.88;100.00;99852.67;1614111;87;20259;-84
2022/01/13 10:21:08;;;;;;;;;;;;;;;1.90;100.00;99852.66;1616659;87;24944;-84
2022/01/13 10:23:34;;;;;;;;;;;;;;;1.91;100.00;99859.07;1620242;87;22085;-83
2022/01/13 10:26:12;;;;;;;;;;;;;;;1.91;100.00;99855.66;1615461;87;21072;-83
2022/01/13 10:28:38;;;;;;;;;;;;;;;1.95;100.00;99854.75;1608866;87;24322;-83
2022/01/13 10:31:04;;;;;;;;;;;;;;;1.97;100.00;99854.27;1611911;87;20861;-83
2022/01/13 10:33:35;;;;;;;;;;;;;;;1.99;100.00;99852.10;1610073;87;20865;-83
2022/01/13 10:36:09;;;;;;;;;;;;;;;2.04;100.00;99845.15;1623312;87;21920;-83
2022/01/13 10:38:52;;;;;;;;;;;;;;;2.10;100.00;99845.07;1616657;87;26038;-84
2022/01/13 10:41:30;;;;;;;;;;;;;;;2.15;100.00;99841.13;1616712;87;24474;-83
2022/01/13 10:43:52;;;;;;;;;;;;;;;2.18;100.00;99838.53;1617511;87;20252;-83
2022/01/13 10:46:18;;;;;;;;;;;;;;;2.23;100.00;99838.02;1619664;87;24791;-84
2022/01/13 10:48:44;;;;;;;;;;;;;;;2.27;100.00;99824.62;1609223;87;20370;-83
2022/01/13 10:51:11;;;;;;;;;;;;;;;2.27;100.00;99807.83;1603682;87;21376;-84
2022/01/13 10:53:39;;;;;;;;;;;;;;;2.31;100.00;99807.76;1614414;87;24459;-84
2022/01/13 10:56:06;;;;;;;;;;;;;;;2.34;100.00;99810.31;1614897;87;20471;-83
2022/01/13 10:58:34;;;;;;;;;;;;;;;2.40;100.00;99802.45;1609903;87;25551;-83
2022/01/13 11:01:01;;;;;;;;;;;;;;;2.45;100.00;99803.70;1602020;88;22789;-83
2022/01/13 11:03:28;;;;;;;;;;;;;;;2.50;100.00;99801.45;1614177;87;26053;-84
2022/01/13 11:05:58;;;;;;;;;;;;;;;2.55;100.00;99782.00;1618558;87;24581;-83
2022/01/13 11:08:26;;;;;;;;;;;;;;;2.61;100.00;99774.16;1617316;87;20283;-83
2022/01/13 11:10:59;;;;;;;;;;;;;;;2.66;100.00;99774.92;1612235;87;24777;-83
2022/01/13 11:13:28;;;;;;;;;;;;;;;2.69;100.00;99772.28;1609414;87;22026;-83
2022/01/13 11:15:59;;;;;;;;;;;;;;;2.73;100.00;99770.05;1608292;88;26825;-83
2022/01/13 11:18:30;;;;;;;;;;;;;;;2.74;100.00;99773.05;1610061;87;24457;-83
2022/01/13 11:20:56;;;;;;;;;;;;;;;2.74;100.00;99765.30;1615948;87;20256;-82
2022/01/13 11:23:23;;;;;;;;;;;;;;;2.77;100.00;99768.28;1619121;87;25402;-83
2022/01/13 11:25:51;;;;;;;;;;;;;;;2.77;100.00;99778.19;1623597;87;22332;-83
2022/01/13 11:28:17;;;;;;;;;;;;;;;2.80;100.00;99779.41;1619899;87;26073;-83
2022/01/13 11:30:45;;;;;;;;;;;;;;;2.84;100.00;99770.72;1615754;87;24433;-82
2022/01/13 11:33:12;;;;;;;;;;;;;;;2.87;100.00;99754.31;1618075;87;20253;-83
2022/01/13 11:35:42;;;;;;;;;;;;;;;2.80;100.00;99756.14;1623513;87;25525;-83
2022/01/13 11:38:08;;;;;;;;;;;;;;;2.78;100.00;99758.36;1610612;87;22058;-82
2022/01/13 11:40:35;;;;;;;;;;;;;;;2.75;100.00;99770.89;1613829;87;26180;-83
2022/01/13 11:43:03;;;;;;;;;;;;;;;2.75;100.00;99770.03;1621541;87;25349;-83
2022/01/13 11:45:29;;;;;;;;;;;;;;;2.78;100.00;99770.00;1620596;87;20488;-83
2022/01/13 11:48:13;;;;;;;;;;;;;;;2.74;100.00;99764.00;1615700;87;24916;-83
2022/01/13 11:50:47;;;;;;;;;;;;;;;2.77;100.00;99769.14;1608910;88;22061;-83
2022/01/13 11:53:21;;;;;;;;;;;;;;;2.77;100.00;99763.97;1613706;88;26223;-83
2022/01/13 11:55:53;;;;;;;;;;;;;;;2.78;100.00;99751.91;1601032;87;25238;-83
2022/01/13 11:58:22;;;;;;;;;;;;;;;2.78;100.00;99748.02;1616375;87;20299;-83
2022/01/13 12:00:51;;;;;;;;;;;;;;;2.77;100.00;99740.70;1602947;87;25571;-83
2022/01/13 12:03:36;;;;;;;;;;;;;;;2.78;100.00;99729.46;1626889;86;22013;-83
2022/01/13 12:06:03;;;;;;;;;;;;;;;2.75;100.00;99733.41;1624498;87;25980;-83
2022/01/13 12:08:36;;;;;;;;;;;;;;;2.71;100.00;99737.37;1617886;86;24469;-83
2022/01/13 12:11:03;;;;;;;;;;;;;;;2.73;100.00;99741.62;1614150;86;20316;-83
2022/01/13 12:13:34;;;;;;;;;;;;;;;2.74;100.00;99747.64;1615620;88;24779;-83
2022/01/13 12:16:00;;;;;;;;;;;;;;;2.75;100.00;99750.20;1620580;87;21999;-83
2022/01/13 12:18:45;;;;;;;;;;;;;;;2.76;100.00;99744.60;1615105;88;26694;-83
2022/01/13 12:21:21;;;;;;;;;;;;;;;2.78;100.00;99740.27;1616611;87;24633;-84
2022/01/13 12:23:44;;;;;;;;;;;;;;;2.78;100.00;99738.51;1610398;88;20285;-84
2022/01/13 12:26:28;;;;;;;;;;;;;;;2.76;100.00;99740.28;1615891;88;24754;-84
2022/01/13 12:29:13;;;;;;;;;;;;;;;2.74;100.00;99736.01;1617361;87;22161;-83
2022/01/13 12:31:58;;;;;;;;;;;;;;;2.65;100.00;99738.33;1633737;87;25946;-83
2022/01/13 12:34:35;;;;;;;;;;;;;;;2.63;100.00;99728.88;1634394;86;24600;-83
2022/01/13 12:37:13;;;;;;;;;;;;;;;2.60;100.00;99714.30;1628428;88;20492;-83
2022/01/13 12:39:43;;;;;;;;;;;;;;;2.57;100.00;99713.04;1624650;87;24830;-83
2022/01/13 12:42:17;;;;;;;;;;;;;;;2.56;100.00;99714.38;1592115;87;22167;-83
2022/01/13 12:47:28;;;;;;;;;;;;;;;2.56;100.00;99718.26;1645805;85;24678;-83
2022/01/13 12:49:54;;;;;;;;;;;;;;;2.56;100.00;99707.48;1647848;85;20233;-83
2022/01/13 12:52:22;;;;;;;;;;;;;;;2.57;100.00;99709.60;1650248;85;25474;-83
2022/01/13 12:54:48;;;;;;;;;;;;;;;2.56;100.00;99711.36;1629919;86;21954;-84
2022/01/13 12:57:17;;;;;;;;;;;;;;;2.52;100.00;99705.38;1643411;87;26097;-83
2022/01/13 12:59:44;;;;;;;;;;;;;;;2.51;100.00;99701.08;1643273;87;24507;-83
2022/01/13 13:02:10;;;;;;;;;;;;;;;2.47;100.00;99696.00;1641881;86;20219;-83
2022/01/13 13:04:36;;;;;;;;;;;;;;;2.47;100.00;99701.16;1634806;86;24733;-83